createdAt,value
2022-10-17T00:01:55.369Z,13.20
2022-10-17T00:04:22.048Z,13.07
2022-10-17T00:06:48.658Z,12.30
2022-10-17T00:09:15.184Z,12.82
2022-10-17T00:11:41.759Z,12.93
2022-10-17T00:14:08.302Z,12.98
2022-10-17T00:16:37.084Z,12.60
2022-10-17T00:19:04.662Z,12.25
2022-10-17T00:21:31.272Z,12.68
2022-10-17T00:23:59.327Z,13.55
2022-10-17T00:26:25.895Z,13.27
2022-10-17T00:28:52.667Z,12.73
2022-10-17T00:31:19.962Z,13.30
2022-10-17T00:33:46.562Z,12.45
2022-10-17T00:36:22.500Z,13.43
2022-10-17T00:38:50.949Z,12.18
2022-10-17T00:41:18.706Z,11.80
2022-10-17T00:46:33.805Z,12.15
2022-10-17T00:49:03.457Z,12.30
2022-10-17T00:51:41.896Z,12.13
2022-10-17T00:56:34.824Z,12.70
2022-10-17T00:59:01.405Z,12.57
2022-10-17T01:01:28.020Z,13.15
2022-10-17T01:03:54.575Z,12.73
2022-10-17T01:06:21.095Z,12.80
2022-10-17T01:08:47.654Z,13.20
2022-10-17T01:11:38.403Z,13.02
2022-10-17T01:14:21.200Z,13.18
2022-10-17T01:17:06.159Z,12.68
2022-10-17T01:19:46.439Z,12.68
2022-10-17T01:22:27.020Z,12.70
2022-10-17T01:25:24.166Z,13.25
2022-10-17T01:28:11.692Z,13.05
2022-10-17T01:31:13.362Z,13.20
2022-10-17T01:33:47.008Z,13.27
2022-10-17T01:36:19.544Z,12.60
2022-10-17T01:38:50.373Z,12.43
2022-10-17T01:41:24.520Z,12.60
2022-10-17T01:43:54.707Z,13.48
2022-10-17T01:46:49.818Z,12.75
2022-10-17T01:49:16.589Z,12.27
2022-10-17T01:51:45.029Z,12.23
2022-10-17T01:54:17.818Z,13.18
2022-10-17T01:56:44.357Z,12.90
2022-10-17T01:59:22.938Z,12.18
2022-10-17T02:01:51.220Z,12.80
2022-10-17T02:04:17.813Z,12.40
2022-10-17T02:06:44.340Z,12.52
2022-10-17T02:09:24.527Z,13.25
2022-10-17T02:12:27.397Z,12.73
2022-10-17T02:15:16.936Z,12.73
2022-10-17T02:18:02.000Z,12.80
2022-10-17T02:20:28.372Z,12.73
2022-10-17T02:23:03.632Z,13.15
2022-10-17T02:25:42.153Z,13.57
2022-10-17T02:28:21.306Z,12.85
2022-10-17T02:30:56.205Z,13.13
2022-10-17T02:33:29.125Z,12.68
2022-10-17T02:36:04.315Z,12.90
2022-10-17T02:38:31.191Z,13.02
2022-10-17T02:40:59.951Z,13.20
2022-10-17T02:43:26.501Z,12.48
2022-10-17T02:45:53.874Z,13.52
2022-10-17T02:48:42.429Z,12.80
2022-10-17T02:51:27.037Z,12.30
2022-10-17T02:54:32.378Z,12.95
2022-10-17T02:57:06.796Z,12.70
2022-10-17T03:02:05.448Z,12.50
2022-10-17T03:04:32.039Z,13.00
2022-10-17T03:06:58.600Z,11.90
2022-10-17T03:09:25.128Z,12.25
2022-10-17T03:11:51.721Z,12.55
2022-10-17T03:14:18.249Z,12.70
2022-10-17T03:16:44.803Z,12.02
2022-10-17T03:19:11.325Z,12.90
2022-10-17T03:21:38.255Z,12.57
2022-10-17T03:24:05.164Z,12.47
2022-10-17T03:26:31.713Z,12.80
2022-10-17T03:28:58.270Z,11.80
2022-10-17T03:31:24.859Z,12.45
2022-10-17T03:33:51.620Z,11.60
2022-10-17T03:36:18.461Z,11.43
2022-10-17T03:38:45.029Z,11.65
2022-10-17T03:41:11.554Z,11.70
2022-10-17T03:43:38.295Z,12.25
2022-10-17T03:46:04.904Z,12.10
2022-10-17T03:48:31.593Z,11.70
2022-10-17T03:51:05.686Z,11.18
2022-10-17T03:53:32.411Z,12.23
2022-10-17T03:56:18.497Z,12.75
2022-10-17T03:58:45.274Z,11.63
2022-10-17T04:01:13.969Z,10.82
2022-10-17T04:03:40.688Z,11.68
2022-10-17T04:06:07.257Z,10.98
2022-10-17T04:08:33.856Z,11.18
2022-10-17T04:11:01.207Z,10.23
2022-10-17T04:13:27.827Z,11.75
2022-10-17T04:16:05.216Z,11.30
2022-10-17T04:18:31.842Z,10.73
2022-10-17T04:20:58.406Z,10.52
2022-10-17T04:23:26.525Z,11.57
2022-10-17T04:25:56.877Z,10.85
2022-10-17T04:28:24.051Z,10.82
2022-10-17T04:31:07.065Z,10.45
2022-10-17T04:33:34.075Z,10.93
2022-10-17T04:36:05.700Z,10.88
2022-10-17T04:38:32.273Z,10.80
2022-10-17T04:41:02.386Z,11.27
2022-10-17T04:43:33.038Z,11.32
2022-10-17T04:46:00.145Z,11.30
2022-10-17T04:48:26.709Z,11.90
2022-10-17T04:50:57.257Z,11.73
2022-10-17T04:53:23.868Z,11.75
2022-10-17T04:55:50.575Z,11.88
2022-10-17T04:58:17.238Z,10.70
2022-10-17T05:00:43.816Z,11.50
2022-10-17T05:03:10.400Z,11.32
2022-10-17T05:05:40.249Z,12.05
2022-10-17T05:08:07.632Z,11.88
2022-10-17T05:10:41.258Z,11.30
2022-10-17T05:13:08.628Z,11.00
2022-10-17T05:15:35.464Z,11.43
2022-10-17T05:18:02.005Z,11.63
2022-10-17T05:20:28.540Z,11.77
2022-10-17T05:22:55.091Z,10.38
2022-10-17T05:25:21.780Z,10.55
2022-10-17T05:27:48.313Z,11.00
2022-10-17T05:30:14.854Z,11.15
2022-10-17T05:32:41.375Z,10.90
2022-10-17T05:35:07.935Z,11.02
2022-10-17T05:37:49.690Z,11.25
2022-10-17T05:40:16.313Z,11.45
2022-10-17T05:42:48.879Z,10.80
2022-10-17T05:45:16.003Z,10.65
2022-10-17T05:47:42.558Z,11.65
2022-10-17T05:50:09.357Z,11.27
2022-10-17T05:52:35.973Z,12.32
2022-10-17T05:55:03.158Z,11.12
2022-10-17T05:57:29.708Z,10.82
2022-10-17T05:59:56.425Z,11.12
2022-10-17T06:02:23.382Z,11.15
2022-10-17T06:04:50.411Z,11.05
2022-10-17T06:07:17.077Z,10.68
2022-10-17T06:12:12.430Z,10.13
2022-10-17T06:14:39.173Z,10.30
2022-10-17T06:17:10.962Z,10.67
2022-10-17T06:19:41.608Z,10.80
2022-10-17T06:22:08.225Z,10.32
2022-10-17T06:24:34.764Z,11.12
2022-10-17T06:27:01.610Z,10.90
2022-10-17T06:29:28.178Z,12.90
2022-10-17T06:31:55.315Z,11.23
2022-10-17T06:34:21.903Z,10.60
2022-10-17T06:36:48.499Z,10.93
2022-10-17T06:39:15.110Z,10.10
2022-10-17T06:41:43.290Z,10.17
2022-10-17T06:44:11.351Z,10.45
2022-10-17T06:46:38.847Z,10.60
2022-10-17T06:51:32.528Z,10.52
2022-10-17T06:53:59.183Z,11.68
2022-10-17T06:56:25.738Z,11.33
2022-10-17T06:58:53.010Z,10.88
2022-10-17T07:01:19.609Z,11.40
2022-10-17T07:03:47.992Z,11.97
2022-10-17T07:06:14.677Z,10.93
2022-10-17T07:08:45.000Z,11.60
2022-10-17T07:11:15.968Z,11.45
2022-10-17T07:13:42.628Z,12.70
2022-10-17T07:16:09.765Z,12.67
2022-10-17T07:18:36.388Z,12.57
2022-10-17T07:21:03.858Z,13.70
2022-10-17T07:26:01.519Z,12.65
2022-10-17T07:28:28.809Z,12.35
2022-10-17T07:30:55.571Z,12.60
2022-10-17T07:33:26.976Z,12.45
2022-10-17T07:35:53.823Z,12.23
2022-10-17T07:38:20.502Z,12.93
2022-10-17T07:40:53.589Z,13.30
2022-10-17T07:43:20.302Z,13.40
2022-10-17T07:45:46.903Z,12.55
2022-10-17T07:48:13.555Z,13.80
2022-10-17T07:50:40.084Z,13.48
2022-10-17T07:53:32.501Z,12.83
2022-10-17T07:55:59.146Z,13.30
2022-10-17T07:58:25.948Z,11.70
2022-10-17T08:00:52.619Z,13.23
2022-10-17T08:03:19.581Z,12.48
2022-10-17T08:05:46.801Z,12.02
2022-10-17T08:08:13.427Z,12.35
2022-10-17T08:10:40.322Z,12.73
2022-10-17T08:13:06.931Z,12.20
2022-10-17T08:15:33.513Z,11.73
2022-10-17T08:18:00.117Z,12.77
2022-10-17T08:20:26.776Z,11.68
2022-10-17T08:22:56.769Z,12.48
2022-10-17T08:25:23.548Z,12.68
2022-10-17T08:27:50.158Z,12.32
2022-10-17T08:30:16.953Z,13.20
2022-10-17T08:32:43.522Z,13.27
2022-10-17T08:35:10.912Z,12.57
2022-10-17T08:40:04.480Z,12.13
2022-10-17T08:43:00.727Z,12.05
2022-10-17T08:45:32.961Z,13.20
2022-10-17T08:48:04.996Z,12.50
2022-10-17T08:50:48.393Z,12.90
2022-10-17T08:53:33.316Z,13.10
2022-10-17T08:56:02.968Z,12.68
2022-10-17T08:58:31.266Z,13.62
2022-10-17T09:01:19.787Z,13.62
2022-10-17T09:04:03.319Z,12.40
2022-10-17T09:06:37.527Z,12.18
2022-10-17T09:09:16.324Z,11.90
2022-10-17T09:11:57.556Z,11.90
2022-10-17T09:14:32.814Z,10.02
2022-10-17T09:17:31.638Z,9.57
2022-10-17T09:20:06.340Z,9.75
2022-10-17T09:22:43.334Z,11.07
2022-10-17T09:25:12.121Z,11.07
2022-10-17T09:27:42.644Z,9.32
2022-10-17T09:30:26.856Z,8.93
2022-10-17T09:32:59.968Z,9.20
2022-10-17T09:35:28.005Z,9.10
2022-10-17T09:37:54.678Z,7.75
2022-10-17T09:40:26.806Z,7.30
2022-10-17T09:42:54.621Z,7.30
2022-10-17T09:45:27.048Z,8.57
2022-10-17T09:47:58.445Z,8.18
2022-10-17T09:50:30.336Z,8.45
2022-10-17T09:52:58.288Z,7.25
2022-10-17T09:55:44.878Z,6.22
2022-10-17T09:58:11.538Z,7.05
2022-10-17T10:00:49.144Z,6.53
2022-10-17T10:03:25.978Z,8.07
2022-10-17T10:06:22.014Z,7.35
2022-10-17T10:08:58.728Z,7.07
2022-10-17T10:11:48.075Z,6.82
2022-10-17T10:14:35.338Z,6.70
2022-10-17T10:17:03.354Z,6.25
2022-10-17T10:19:38.341Z,6.55
2022-10-17T10:22:15.037Z,5.50
2022-10-17T10:24:41.885Z,5.90
2022-10-17T10:27:13.201Z,6.90
2022-10-17T10:29:50.067Z,6.90
2022-10-17T10:32:23.939Z,5.72
2022-10-17T10:34:51.092Z,4.87
2022-10-17T10:37:22.853Z,5.55
2022-10-17T10:39:50.051Z,5.82
2022-10-17T10:42:33.544Z,6.00
2022-10-17T10:45:23.667Z,5.65
2022-10-17T10:47:57.394Z,6.50
2022-10-17T10:50:45.043Z,5.90
2022-10-17T10:53:35.373Z,6.57
2022-10-17T10:56:10.134Z,5.28
2022-10-17T10:58:48.749Z,5.00
2022-10-17T11:01:54.805Z,5.03
2022-10-17T11:04:29.417Z,5.78
2022-10-17T11:07:02.856Z,5.87
2022-10-17T11:10:00.356Z,5.75
2022-10-17T11:12:35.848Z,5.50
2022-10-17T11:15:09.751Z,6.07
2022-10-17T11:17:40.727Z,6.20
2022-10-17T11:20:11.879Z,6.22
2022-10-17T11:22:52.562Z,6.37
2022-10-17T11:25:32.604Z,4.97
2022-10-17T11:28:04.635Z,5.22
2022-10-17T11:30:58.175Z,5.37
2022-10-17T11:33:27.922Z,7.10
2022-10-17T11:35:58.851Z,5.57
2022-10-17T11:38:37.053Z,5.32
2022-10-17T11:41:03.857Z,5.25
2022-10-17T11:43:40.778Z,5.45
2022-10-17T11:46:14.263Z,5.55
2022-10-17T11:49:06.231Z,6.40
2022-10-17T11:54:35.522Z,6.62
2022-10-17T11:57:29.936Z,6.03
2022-10-17T12:00:02.621Z,6.22
2022-10-17T12:02:32.291Z,5.60
2022-10-17T12:05:06.963Z,5.05
2022-10-17T12:07:48.097Z,5.70
2022-10-17T12:10:35.269Z,5.60
2022-10-17T12:13:30.255Z,5.60
2022-10-17T12:16:17.712Z,4.95
2022-10-17T12:18:44.271Z,5.47
2022-10-17T12:21:11.336Z,5.37
2022-10-17T12:23:39.318Z,4.90
2022-10-17T12:26:08.224Z,5.43
2022-10-17T12:28:37.925Z,6.50
2022-10-17T12:31:16.566Z,5.47
2022-10-17T12:33:48.573Z,5.40
2022-10-17T12:36:27.206Z,5.85
2022-10-17T12:39:02.983Z,5.07
2022-10-17T12:41:38.482Z,4.50
2022-10-17T12:44:13.941Z,5.57
2022-10-17T12:46:46.429Z,5.30
2022-10-17T12:49:45.678Z,4.75
2022-10-17T12:52:37.978Z,5.22
2022-10-17T12:55:13.526Z,4.80
2022-10-17T12:58:04.007Z,5.10
2022-10-17T13:00:49.824Z,3.97
2022-10-17T13:03:34.693Z,3.90
2022-10-17T13:06:04.459Z,3.80
2022-10-17T13:08:33.356Z,4.57
2022-10-17T13:10:59.936Z,4.90
2022-10-17T13:13:47.647Z,6.20
2022-10-17T13:16:37.669Z,4.30
2022-10-17T13:19:12.747Z,4.72
2022-10-17T13:21:39.288Z,5.03
2022-10-17T13:24:41.468Z,4.30
2022-10-17T13:27:28.420Z,5.05
2022-10-17T13:29:59.156Z,4.80
2022-10-17T13:32:27.051Z,5.05
2022-10-17T13:35:13.825Z,5.70
2022-10-17T13:37:41.821Z,4.78
2022-10-17T13:40:40.357Z,4.45
2022-10-17T13:43:04.174Z,4.37
2022-10-17T13:45:33.224Z,4.75
2022-10-17T13:48:01.499Z,4.43
2022-10-17T13:50:44.511Z,4.20
2022-10-17T13:53:29.336Z,3.90
2022-10-17T13:56:26.479Z,4.45
2022-10-17T13:58:52.752Z,4.10
2022-10-17T14:01:19.526Z,4.37
2022-10-17T14:03:48.964Z,3.97
2022-10-17T14:06:16.336Z,4.75
2022-10-17T14:08:50.728Z,4.70
2022-10-17T14:11:30.934Z,4.65
2022-10-17T14:13:57.834Z,4.55
2022-10-17T14:16:24.709Z,4.80
2022-10-17T14:18:51.362Z,4.53
2022-10-17T14:21:42.899Z,4.78
2022-10-17T14:24:21.513Z,4.65
2022-10-17T14:26:50.878Z,5.62
2022-10-17T14:29:28.621Z,5.68
2022-10-17T14:32:05.170Z,4.20
2022-10-17T14:34:37.126Z,5.18
2022-10-17T14:37:10.188Z,4.18
2022-10-17T14:39:36.957Z,4.78
2022-10-17T14:42:04.542Z,5.18
2022-10-17T14:44:33.117Z,5.32
2022-10-17T14:47:18.177Z,5.75
2022-10-17T14:49:57.020Z,4.57
2022-10-17T14:52:27.470Z,4.95
2022-10-17T14:54:54.314Z,5.72
2022-10-17T14:57:45.967Z,6.00
2022-10-17T15:00:16.778Z,4.80
2022-10-17T15:02:43.501Z,4.72
2022-10-17T15:05:13.271Z,4.62
2022-10-17T15:07:40.544Z,5.97
2022-10-17T15:10:21.522Z,5.80
2022-10-17T15:12:57.467Z,5.60
2022-10-17T15:15:31.385Z,6.25
2022-10-17T15:17:57.977Z,4.20
2022-10-17T15:20:30.220Z,4.85
2022-10-17T15:22:58.535Z,4.75
2022-10-17T15:25:25.228Z,5.35
2022-10-17T15:27:51.993Z,5.60
2022-10-17T15:30:21.603Z,5.07
2022-10-17T15:32:49.043Z,5.50
2022-10-17T15:35:15.876Z,5.75
2022-10-17T15:37:43.495Z,6.97
2022-10-17T15:40:17.643Z,6.30
2022-10-17T15:42:44.264Z,6.20
2022-10-17T15:45:12.155Z,5.73
2022-10-17T15:47:38.739Z,6.97
2022-10-17T15:50:07.131Z,6.80
2022-10-17T15:52:33.704Z,5.75
2022-10-17T15:55:04.043Z,6.55
2022-10-17T15:57:35.151Z,7.03
2022-10-17T16:00:11.779Z,6.70
2022-10-17T16:02:42.265Z,6.62
2022-10-17T16:05:16.205Z,7.27
2022-10-17T16:07:47.425Z,5.53
2022-10-17T16:10:14.412Z,5.43
2022-10-17T16:12:43.714Z,6.30
2022-10-17T16:15:15.127Z,7.15
2022-10-17T16:17:41.755Z,6.40
2022-10-17T16:20:08.627Z,7.23
2022-10-17T16:22:38.200Z,6.40
2022-10-17T16:25:09.963Z,5.70
2022-10-17T16:27:36.819Z,5.35
2022-10-17T16:30:04.703Z,6.12
2022-10-17T16:32:31.563Z,6.30
2022-10-17T16:35:00.047Z,6.35
2022-10-17T16:37:27.162Z,6.25
2022-10-17T16:39:53.724Z,6.70
2022-10-17T16:42:20.821Z,8.13
2022-10-17T16:44:48.228Z,6.78
2022-10-17T16:47:14.800Z,7.05
2022-10-17T16:49:44.404Z,6.78
2022-10-17T16:52:12.059Z,6.68
2022-10-17T16:54:38.633Z,6.33
2022-10-17T16:57:05.316Z,6.53
2022-10-17T16:59:31.873Z,7.60
2022-10-17T17:01:58.440Z,7.65
2022-10-17T17:04:25.022Z,7.10
2022-10-17T17:06:51.582Z,7.22
2022-10-17T17:09:18.175Z,7.72
2022-10-17T17:11:44.732Z,7.32
2022-10-17T17:14:11.664Z,8.55
2022-10-17T17:16:38.283Z,8.63
2022-10-17T17:19:10.266Z,8.60
2022-10-17T17:21:36.910Z,8.63
2022-10-17T17:24:03.947Z,8.43
2022-10-17T17:26:32.539Z,7.07
2022-10-17T17:28:59.973Z,8.00
2022-10-17T17:31:28.700Z,8.02
2022-10-17T17:36:28.819Z,7.25
2022-10-17T17:38:56.958Z,7.80
2022-10-17T17:41:23.775Z,7.10
2022-10-17T17:43:50.372Z,8.13
2022-10-17T17:46:18.223Z,8.30
2022-10-17T17:48:45.899Z,8.35
2022-10-17T17:53:39.800Z,7.90
2022-10-17T17:56:14.620Z,8.03
2022-10-17T17:58:45.727Z,7.80
2022-10-17T18:01:22.392Z,8.50
2022-10-17T18:03:49.976Z,8.13
2022-10-17T18:06:16.679Z,7.95
2022-10-17T18:08:48.095Z,9.20
2022-10-17T18:11:17.111Z,7.93
2022-10-17T18:13:46.268Z,6.82
2022-10-17T18:16:13.343Z,6.62
2022-10-17T18:18:41.421Z,8.23
2022-10-17T18:21:08.958Z,8.57
2022-10-17T18:23:42.649Z,7.32
2022-10-17T18:26:09.646Z,9.73
2022-10-17T18:28:37.131Z,8.55
2022-10-17T18:31:10.275Z,8.25
2022-10-17T18:33:37.651Z,9.30
2022-10-17T18:36:08.302Z,8.40
2022-10-17T18:38:34.848Z,10.52
2022-10-17T18:41:11.967Z,8.05
2022-10-17T18:43:39.394Z,10.00
2022-10-17T18:46:13.870Z,9.52
2022-10-17T18:48:42.671Z,8.70
2022-10-17T18:53:36.740Z,10.10
2022-10-17T18:58:30.012Z,9.38
2022-10-17T19:01:02.060Z,11.35
2022-10-17T19:03:28.611Z,9.77
2022-10-17T19:05:56.744Z,10.30
2022-10-17T19:08:25.655Z,9.98
2022-10-17T19:10:52.325Z,10.07
2022-10-17T19:13:21.544Z,10.40
2022-10-17T19:15:48.341Z,12.10
2022-10-17T19:18:14.909Z,12.18
2022-10-17T19:20:41.533Z,11.00
2022-10-17T19:23:08.080Z,11.57
2022-10-17T19:25:34.632Z,11.50
2022-10-17T19:28:01.191Z,10.23
2022-10-17T19:30:27.892Z,11.23
2022-10-17T19:32:54.466Z,11.18
2022-10-17T19:35:21.044Z,10.30
2022-10-17T19:37:47.597Z,11.88
2022-10-17T19:40:14.279Z,11.70
2022-10-17T19:42:40.976Z,11.52
2022-10-17T19:45:08.500Z,10.30
2022-10-17T19:47:35.247Z,11.60
2022-10-17T19:52:28.701Z,12.10
2022-10-17T19:54:55.472Z,12.32
2022-10-17T19:57:22.022Z,12.48
2022-10-17T19:59:50.289Z,10.95
2022-10-17T20:02:19.053Z,12.23
2022-10-17T20:04:54.480Z,10.93
2022-10-17T20:07:32.159Z,10.32
2022-10-17T20:09:58.676Z,10.35
2022-10-17T20:12:25.257Z,11.27
2022-10-17T20:14:51.789Z,11.82
2022-10-17T20:17:18.328Z,12.70
2022-10-17T20:19:45.090Z,11.85
2022-10-17T20:22:11.617Z,11.73
2022-10-17T20:24:38.246Z,12.60
2022-10-17T20:27:04.807Z,11.63
2022-10-17T20:29:31.631Z,12.60
2022-10-17T20:31:58.188Z,12.27
2022-10-17T20:34:24.806Z,12.57
2022-10-17T20:36:51.363Z,12.07
2022-10-17T20:39:19.332Z,11.35
2022-10-17T20:41:46.200Z,11.77
2022-10-17T20:44:12.904Z,11.07
2022-10-17T20:46:45.285Z,12.02
2022-10-17T20:49:24.150Z,11.98
2022-10-17T20:51:50.720Z,10.95
2022-10-17T20:54:17.302Z,10.00
2022-10-17T20:56:44.004Z,10.85
2022-10-17T20:59:12.655Z,10.95
2022-10-17T21:01:39.402Z,11.07
2022-10-17T21:04:33.418Z,9.93
2022-10-17T21:06:53.458Z,9.57
2022-10-17T21:09:20.210Z,9.77
2022-10-17T21:11:47.053Z,9.70
2022-10-17T21:14:16.730Z,10.07
2022-10-17T21:16:43.429Z,10.75
2022-10-17T21:19:10.484Z,12.00
2022-10-17T21:21:38.457Z,9.85
2022-10-17T21:24:06.539Z,10.43
2022-10-17T21:26:34.049Z,11.40
2022-10-17T21:29:05.423Z,10.88
2022-10-17T21:31:33.369Z,10.77
2022-10-17T21:34:05.592Z,10.68
2022-10-17T21:36:32.163Z,10.65
2022-10-17T21:38:58.776Z,11.48
2022-10-17T21:41:27.193Z,11.45
2022-10-17T21:43:55.126Z,11.43
2022-10-17T21:46:21.775Z,11.68
2022-10-17T21:48:48.656Z,11.80
2022-10-17T21:51:16.997Z,12.43
2022-10-17T21:53:43.568Z,13.38
2022-10-17T21:56:12.032Z,13.23
2022-10-17T21:58:38.579Z,12.73
2022-10-17T22:01:12.683Z,13.40
2022-10-17T22:04:23.161Z,13.77
2022-10-17T22:06:53.246Z,13.48
2022-10-17T22:09:24.472Z,13.80
2022-10-17T22:11:55.627Z,13.05
2022-10-17T22:14:23.483Z,13.75
2022-10-17T22:16:50.133Z,14.23
2022-10-17T22:19:19.432Z,13.85
2022-10-17T22:21:45.942Z,13.43
2022-10-17T22:24:14.138Z,14.43
2022-10-17T22:26:40.982Z,13.73
2022-10-17T22:29:07.812Z,13.75
2022-10-17T22:31:34.545Z,14.00
2022-10-17T22:34:01.085Z,13.95
2022-10-17T22:36:27.654Z,13.57
2022-10-17T22:38:54.176Z,13.80
2022-10-17T22:41:20.722Z,13.57
2022-10-17T22:43:47.267Z,14.75
2022-10-17T22:46:14.169Z,13.75
2022-10-17T22:48:40.786Z,14.33
2022-10-17T22:51:07.531Z,14.77
2022-10-17T22:53:35.064Z,14.25
2022-10-17T22:56:03.624Z,15.25
2022-10-17T22:58:30.856Z,14.98
2022-10-17T23:00:57.592Z,13.50
2022-10-17T23:03:24.515Z,15.13
2022-10-17T23:05:51.079Z,14.37
2022-10-17T23:08:20.326Z,13.90
2022-10-17T23:10:47.121Z,14.93
2022-10-17T23:13:13.731Z,14.00
2022-10-17T23:15:40.304Z,15.02
2022-10-17T23:18:07.657Z,14.98
2022-10-17T23:20:34.238Z,13.75
2022-10-17T23:23:00.759Z,13.98
2022-10-17T23:25:27.345Z,14.98
2022-10-17T23:27:53.897Z,14.73
2022-10-17T23:30:20.483Z,13.57
2022-10-17T23:32:47.037Z,13.95
2022-10-17T23:35:13.566Z,13.60
2022-10-17T23:37:40.090Z,13.93
2022-10-17T23:40:08.063Z,14.25
2022-10-17T23:42:34.671Z,13.93
2022-10-17T23:45:01.192Z,14.18
2022-10-17T23:47:27.887Z,15.40
2022-10-17T23:49:54.600Z,13.53
2022-10-17T23:52:21.135Z,13.88
2022-10-17T23:54:47.686Z,14.60
2022-10-17T23:57:14.304Z,14.50
2022-10-17T23:59:40.838Z,14.25
